Time;durP1;ratioP1;P1;durP2;ratioP2;P2;SDS_P1;SDS_P2;PMS_P1;PMS_P2;Temp;Humidity;BMP_temperature;BMP_pressure;BME280_temperature;BME280_humidity;BME280_pressure;Samples;Min_cycle;Max_cycle;Signal;HPM_P1;HPM_P2
2022/03/06 00:00:40;;;;;;;22.00;10.60;;;1.90;99.90;;;;;;5012839;28;20505;-70
2022/03/06 00:03:07;;;;;;;16.47;10.53;;;1.70;99.90;;;;;;5012636;28;20460;-70
2022/03/06 00:05:34;;;;;;;16.97;10.00;;;1.50;99.90;;;;;;5012462;28;20507;-70
2022/03/06 00:08:02;;;;;;;20.13;10.60;;;1.50;99.90;;;;;;5012418;28;20533;-70
2022/03/06 00:10:29;;;;;;;18.30;10.43;;;1.40;99.90;;;;;;5012871;28;20826;-70
2022/03/06 00:12:56;;;;;;;26.70;12.90;;;1.40;99.90;;;;;;5012765;28;20474;-70
2022/03/06 00:15:26;;;;;;;21.00;11.10;;;1.30;99.90;;;;;;5011935;28;20482;-70
2022/03/06 00:17:53;;;;;;;19.30;10.30;;;1.30;99.90;;;;;;5012909;28;20450;-70
2022/03/06 00:20:19;;;;;;;16.33;10.50;;;1.40;99.90;;;;;;5011966;28;20454;-71
2022/03/06 00:22:46;;;;;;;18.73;10.70;;;1.70;99.90;;;;;;5012407;28;20454;-70
2022/03/06 00:25:13;;;;;;;18.23;10.47;;;1.30;99.90;;;;;;5012041;28;20446;-70
2022/03/06 00:27:39;;;;;;;21.50;11.30;;;1.20;99.90;;;;;;5012154;28;20461;-70
2022/03/06 00:30:08;;;;;;;15.90;9.87;;;1.20;99.90;;;;;;5012166;28;20496;-71
2022/03/06 00:32:36;;;;;;;20.47;10.67;;;1.10;99.90;;;;;;5012545;28;20486;-70
2022/03/06 00:35:03;;;;;;;16.23;9.77;;;1.40;99.90;;;;;;5012146;28;20512;-71
2022/03/06 00:37:29;;;;;;;18.63;9.40;;;1.00;99.90;;;;;;5011203;28;20505;-71
2022/03/06 00:39:56;;;;;;;17.20;10.30;;;1.20;99.90;;;;;;5012196;28;20597;-71
2022/03/06 00:42:22;;;;;;;18.70;10.20;;;1.00;99.90;;;;;;5011999;28;20865;-71
2022/03/06 00:44:50;;;;;;;20.70;11.30;;;1.30;99.90;;;;;;5011966;28;20450;-70
2022/03/06 00:47:17;;;;;;;18.27;9.33;;;0.90;99.90;;;;;;5011657;28;21061;-70
2022/03/06 00:49:45;;;;;;;18.13;11.03;;;0.90;99.90;;;;;;5012052;28;20455;-71
2022/03/06 00:52:13;;;;;;;18.63;10.00;;;0.80;99.90;;;;;;5011709;28;20450;-70
2022/03/06 00:54:40;;;;;;;18.20;9.70;;;0.80;99.90;;;;;;5011660;28;20516;-71
2022/03/06 00:57:06;;;;;;;16.10;9.83;;;0.80;99.90;;;;;;5011481;28;20565;-70
2022/03/06 00:59:35;;;;;;;18.73;11.10;;;0.80;99.90;;;;;;5011820;28;20482;-70
2022/03/06 01:02:02;;;;;;;19.70;10.60;;;0.70;99.90;;;;;;5011328;28;20493;-70
2022/03/06 01:04:29;;;;;;;21.27;11.40;;;0.70;99.90;;;;;;5011447;28;20478;-70
2022/03/06 01:06:57;;;;;;;21.07;11.10;;;0.70;99.90;;;;;;5011235;28;20470;-70
2022/03/06 01:09:24;;;;;;;18.27;10.40;;;0.60;99.90;;;;;;5011810;28;20500;-70
2022/03/06 01:11:51;;;;;;;23.63;10.80;;;0.60;99.90;;;;;;5011161;28;20508;-70
2022/03/06 01:14:18;;;;;;;20.67;10.90;;;0.60;99.90;;;;;;5011327;28;20458;-70
2022/03/06 01:16:44;;;;;;;16.80;9.60;;;0.60;99.90;;;;;;5011489;28;20470;-70
2022/03/06 01:19:11;;;;;;;18.93;10.53;;;0.50;99.90;;;;;;5006372;28;20983;-70
2022/03/06 01:21:38;;;;;;;20.20;10.53;;;0.50;99.90;;;;;;5011008;28;20516;-70
2022/03/06 01:24:07;;;;;;;18.93;10.37;;;0.50;99.90;;;;;;5010887;28;20957;-70
2022/03/06 01:26:33;;;;;;;23.87;11.50;;;0.40;99.90;;;;;;5011835;28;20838;-70
2022/03/06 01:29:00;;;;;;;23.47;11.07;;;0.40;99.90;;;;;;5011523;28;20454;-70
2022/03/06 01:31:27;;;;;;;18.60;10.30;;;0.40;99.90;;;;;;5011219;28;20501;-70
2022/03/06 01:33:54;;;;;;;21.27;11.77;;;0.40;99.90;;;;;;5010126;28;20477;-70
2022/03/06 01:36:20;;;;;;;20.07;10.70;;;0.40;99.90;;;;;;5011312;28;20473;-70
2022/03/06 01:38:47;;;;;;;21.17;12.03;;;0.40;99.90;;;;;;5010727;28;20521;-69
2022/03/06 01:41:15;;;;;;;19.67;11.00;;;0.30;99.90;;;;;;5011210;28;20458;-69
2022/03/06 01:43:42;;;;;;;20.90;11.00;;;0.30;99.90;;;;;;5010625;28;20542;-70
2022/03/06 01:46:09;;;;;;;20.73;12.30;;;0.30;99.90;;;;;;5011149;28;20466;-70
2022/03/06 01:48:35;;;;;;;24.20;12.67;;;0.20;99.90;;;;;;5010880;28;20462;-70
2022/03/06 01:51:02;;;;;;;27.63;13.97;;;0.20;99.90;;;;;;5010594;28;20450;-70
2022/03/06 01:53:29;;;;;;;26.70;12.77;;;0.10;99.90;;;;;;5009231;28;20512;-70
2022/03/06 01:55:56;;;;;;;19.57;11.53;;;0.10;99.90;;;;;;5006514;28;20470;-69
2022/03/06 01:58:24;;;;;;;23.70;12.30;;;0.10;99.90;;;;;;5010902;28;20454;-70
2022/03/06 02:00:51;;;;;;;25.27;13.27;;;0.00;99.90;;;;;;5010323;28;20987;-70
2022/03/06 02:03:19;;;;;;;24.50;12.37;;;0.00;99.90;;;;;;5010582;28;20446;-70
2022/03/06 02:05:46;;;;;;;25.23;13.00;;;0.00;99.90;;;;;;5010100;28;20861;-70
2022/03/06 02:08:13;;;;;;;30.00;13.70;;;-0.10;99.90;;;;;;5010340;28;21197;-70
2022/03/06 02:10:39;;;;;;;23.50;12.37;;;-0.10;99.90;;;;;;5010063;28;20458;-70
2022/03/06 02:13:07;;;;;;;29.10;13.63;;;-0.20;99.90;;;;;;5010656;28;20938;-70
2022/03/06 02:15:35;;;;;;;27.93;14.27;;;-0.20;99.90;;;;;;5010154;28;20478;-70
2022/03/06 02:18:02;;;;;;;19.50;11.63;;;-0.20;99.90;;;;;;5011010;28;20458;-70
2022/03/06 02:20:28;;;;;;;34.23;15.97;;;-0.20;99.90;;;;;;5010243;28;21056;-70
2022/03/06 02:22:59;;;;;;;25.83;12.93;;;-0.20;99.90;;;;;;5007414;28;20446;-70
2022/03/06 02:25:27;;;;;;;24.70;12.73;;;-0.20;99.90;;;;;;5010231;28;20474;-70
2022/03/06 02:27:56;;;;;;;25.17;12.90;;;-0.30;99.90;;;;;;5010787;28;20450;-70
2022/03/06 02:30:24;;;;;;;20.37;11.73;;;-0.30;99.90;;;;;;5010454;28;20885;-70
2022/03/06 02:32:52;;;;;;;27.70;14.27;;;-0.30;99.90;;;;;;5010653;28;20457;-70
2022/03/06 02:35:21;;;;;;;27.30;12.90;;;-0.40;99.90;;;;;;5010420;28;20451;-70
2022/03/06 02:37:49;;;;;;;31.13;13.87;;;-0.40;99.90;;;;;;5010408;28;20461;-70
2022/03/06 02:40:19;;;;;;;27.73;14.13;;;-0.40;99.90;;;;;;5010645;28;20515;-70
2022/03/06 02:42:47;;;;;;;27.53;14.97;;;-0.40;99.90;;;;;;5010830;28;20876;-70
2022/03/06 02:45:17;;;;;;;27.53;13.17;;;-0.50;99.90;;;;;;5009886;28;20462;-70
2022/03/06 02:47:44;;;;;;;29.93;14.10;;;-0.30;99.90;;;;;;5010528;28;20454;-70
2022/03/06 02:50:13;;;;;;;26.30;13.80;;;-0.50;99.90;;;;;;5010663;28;20457;-70
2022/03/06 02:52:40;;;;;;;26.23;13.87;;;-0.50;99.90;;;;;;5009927;28;20446;-69
2022/03/06 02:55:09;;;;;;;27.60;13.40;;;-0.60;99.90;;;;;;5010071;28;20524;-70
2022/03/06 02:57:37;;;;;;;27.30;14.43;;;-0.60;99.90;;;;;;5010534;28;20453;-70
2022/03/06 03:00:06;;;;;;;29.27;14.77;;;-0.60;99.90;;;;;;5010220;28;21049;-70
2022/03/06 03:02:34;;;;;;;28.37;14.73;;;-0.60;99.90;;;;;;5010225;28;20544;-70
2022/03/06 03:05:00;;;;;;;27.57;14.73;;;-0.60;99.90;;;;;;5000709;28;20524;-70
2022/03/06 03:07:27;;;;;;;28.47;15.57;;;-0.60;99.90;;;;;;5010435;28;20809;-70
2022/03/06 03:09:54;;;;;;;28.33;15.17;;;-0.60;99.90;;;;;;5009713;28;20453;-70
2022/03/06 03:12:20;;;;;;;30.90;14.70;;;-0.60;99.90;;;;;;5010361;28;20459;-70
2022/03/06 03:14:48;;;;;;;27.47;15.00;;;-0.70;99.90;;;;;;5012613;28;20824;-70
2022/03/06 03:17:15;;;;;;;32.03;13.70;;;-0.70;99.90;;;;;;5014083;28;20523;-70
2022/03/06 03:19:42;;;;;;;28.40;15.27;;;-0.50;99.90;;;;;;5012282;28;21081;-70
2022/03/06 03:22:09;;;;;;;29.33;15.03;;;-0.70;99.90;;;;;;5013941;28;20453;-70
2022/03/06 03:24:35;;;;;;;32.77;15.73;;;-0.50;99.90;;;;;;5013256;28;20508;-69
2022/03/06 03:27:02;;;;;;;29.50;14.43;;;-0.80;99.90;;;;;;5013535;28;20473;-70
2022/03/06 03:29:29;;;;;;;26.77;14.07;;;-0.80;99.90;;;;;;5013250;28;20942;-69
2022/03/06 03:31:57;;;;;;;30.97;15.23;;;-0.80;99.90;;;;;;4994118;28;20453;-70
2022/03/06 03:34:23;;;;;;;31.53;14.77;;;-0.80;99.90;;;;;;5000717;28;21036;-70
2022/03/06 03:36:50;;;;;;;32.10;16.40;;;-0.80;99.90;;;;;;5013626;28;20536;-69
2022/03/06 03:39:17;;;;;;;34.30;16.30;;;-0.80;99.90;;;;;;5013715;28;20489;-69
2022/03/06 03:41:44;;;;;;;25.73;14.57;;;-0.70;99.90;;;;;;5013263;28;20513;-70
2022/03/06 03:44:10;;;;;;;33.17;15.70;;;-0.90;99.90;;;;;;5012857;28;20461;-70
2022/03/06 03:46:37;;;;;;;32.60;15.97;;;-0.90;99.90;;;;;;5012616;28;20478;-69
2022/03/06 03:49:05;;;;;;;32.20;16.47;;;-0.80;99.90;;;;;;5013381;28;20458;-70
2022/03/06 03:51:32;;;;;;;29.13;15.00;;;-0.80;99.90;;;;;;5012970;28;20458;-70
2022/03/06 03:53:59;;;;;;;33.57;16.67;;;-0.80;99.90;;;;;;5012784;28;20473;-70
2022/03/06 03:56:25;;;;;;;26.97;14.00;;;-0.80;99.90;;;;;;5012676;28;20478;-70
2022/03/06 03:58:52;;;;;;;30.80;15.17;;;-0.80;99.90;;;;;;5013088;28;20454;-70
2022/03/06 04:01:19;;;;;;;32.77;15.60;;;-0.80;99.90;;;;;;5012755;28;20540;-70
2022/03/06 04:03:46;;;;;;;26.80;14.50;;;-0.70;99.90;;;;;;5012526;28;20450;-69
2022/03/06 04:06:14;;;;;;;32.73;16.30;;;-0.70;99.90;;;;;;5010094;28;20544;-70
2022/03/06 04:08:41;;;;;;;27.70;15.70;;;-0.70;99.90;;;;;;5012735;28;20458;-70
2022/03/06 04:11:07;;;;;;;28.60;15.03;;;-0.70;99.90;;;;;;5012473;28;20997;-69
2022/03/06 04:13:34;;;;;;;34.87;15.40;;;-0.70;99.90;;;;;;5011803;28;20458;-69
2022/03/06 04:16:01;;;;;;;33.00;17.20;;;-0.70;99.90;;;;;;5012252;28;20509;-69
2022/03/06 04:18:28;;;;;;;30.60;13.83;;;-0.70;99.90;;;;;;5012510;28;20516;-69
2022/03/06 04:20:54;;;;;;;36.30;16.50;;;-0.70;99.90;;;;;;5012391;28;20490;-70
2022/03/06 04:23:23;;;;;;;29.40;16.23;;;-0.60;99.90;;;;;;5011999;28;20520;-70
2022/03/06 04:25:49;;;;;;;38.63;16.53;;;-0.70;99.90;;;;;;5011862;28;20474;-70
2022/03/06 04:28:16;;;;;;;31.33;15.80;;;-0.70;99.90;;;;;;5012098;28;20963;-69
2022/03/06 04:30:43;;;;;;;30.73;15.30;;;-0.70;99.90;;;;;;5012552;28;20458;-70
2022/03/06 04:33:09;;;;;;;34.77;15.00;;;-0.60;99.90;;;;;;5012671;28;20446;-70
2022/03/06 04:35:36;;;;;;;28.03;13.97;;;-0.70;99.90;;;;;;5012416;28;20474;-70
2022/03/06 04:38:03;;;;;;;31.67;16.13;;;-0.70;99.90;;;;;;5012141;28;20513;-70
2022/03/06 04:40:31;;;;;;;26.37;14.37;;;-0.70;99.90;;;;;;5011901;28;20540;-70
2022/03/06 04:42:57;;;;;;;34.90;14.43;;;-0.70;99.90;;;;;;5012080;28;20458;-69
2022/03/06 04:45:26;;;;;;;31.53;15.33;;;-0.70;99.90;;;;;;5011831;28;20528;-70
2022/03/06 04:47:53;;;;;;;32.87;15.07;;;-0.70;99.90;;;;;;5011920;28;20454;-70
2022/03/06 04:50:20;;;;;;;29.63;15.40;;;-0.70;99.90;;;;;;5012060;28;20533;-70
2022/03/06 04:52:46;;;;;;;30.30;15.60;;;-0.70;99.90;;;;;;5011689;28;20450;-70
2022/03/06 04:55:13;;;;;;;29.10;15.30;;;-0.70;99.90;;;;;;5011315;28;21167;-70
2022/03/06 04:57:45;;;;;;;34.13;15.20;;;-0.50;99.90;;;;;;5012252;28;20500;-70
2022/03/06 05:00:13;;;;;;;30.90;14.50;;;-0.70;99.90;;;;;;5011880;28;20537;-70
2022/03/06 05:02:40;;;;;;;29.73;14.53;;;-0.70;99.90;;;;;;5011650;28;20458;-70
2022/03/06 05:05:08;;;;;;;30.73;14.53;;;-0.60;99.90;;;;;;5011051;28;20523;-70
2022/03/06 05:07:35;;;;;;;33.90;15.53;;;-0.60;99.90;;;;;;5011629;28;20509;-70
2022/03/06 05:10:02;;;;;;;31.03;15.27;;;-0.60;99.90;;;;;;5011800;28;20446;-69
2022/03/06 05:12:28;;;;;;;30.30;14.80;;;-0.60;99.90;;;;;;5011397;28;20455;-70
2022/03/06 05:14:56;;;;;;;26.80;13.37;;;-0.60;99.90;;;;;;5011403;28;20987;-70
2022/03/06 05:17:23;;;;;;;27.73;14.90;;;-0.60;99.90;;;;;;5011266;28;20481;-70
2022/03/06 05:19:50;;;;;;;26.10;13.80;;;-0.60;99.90;;;;;;5011367;28;20489;-70
2022/03/06 05:22:16;;;;;;;31.90;14.27;;;-0.60;99.90;;;;;;5011557;28;20519;-70
2022/03/06 05:24:43;;;;;;;25.93;14.53;;;-0.50;99.90;;;;;;5011435;28;20858;-70
2022/03/06 05:27:10;;;;;;;26.40;13.70;;;-0.50;99.90;;;;;;5011226;28;20470;-70
2022/03/06 05:29:36;;;;;;;25.90;14.27;;;-0.60;99.90;;;;;;5011603;28;20504;-70
2022/03/06 05:32:05;;;;;;;27.37;13.90;;;-0.50;99.90;;;;;;5011334;28;20507;-70
2022/03/06 05:34:32;;;;;;;29.00;14.07;;;-0.50;99.90;;;;;;5010860;28;20978;-70
2022/03/06 05:36:58;;;;;;;27.77;13.63;;;-0.10;99.90;;;;;;5010831;28;20473;-70
2022/03/06 05:39:25;;;;;;;31.63;15.50;;;-0.50;99.90;;;;;;5010922;28;20866;-70
2022/03/06 05:41:52;;;;;;;29.50;15.13;;;-0.60;99.90;;;;;;5011243;28;20478;-69
2022/03/06 05:44:19;;;;;;;29.00;14.40;;;-0.60;99.90;;;;;;5010930;28;20458;-69
2022/03/06 05:46:46;;;;;;;30.57;14.30;;;-0.50;99.90;;;;;;5010814;28;20541;-69
2022/03/06 05:49:14;;;;;;;29.67;14.20;;;-0.50;99.90;;;;;;5009357;28;20493;-69
2022/03/06 05:51:41;;;;;;;28.77;14.50;;;-0.50;99.90;;;;;;5011009;28;20443;-69
2022/03/06 05:54:09;;;;;;;35.43;14.97;;;-0.50;99.90;;;;;;5010199;28;20557;-69
2022/03/06 05:56:36;;;;;;;28.73;13.83;;;-0.50;99.90;;;;;;5009871;28;20482;-69
2022/03/06 05:59:04;;;;;;;26.63;14.33;;;-0.50;99.90;;;;;;5010075;28;20450;-69
2022/03/06 06:01:30;;;;;;;30.70;16.17;;;-0.50;99.90;;;;;;5010276;28;20577;-70
2022/03/06 06:03:57;;;;;;;27.23;14.90;;;-0.50;99.90;;;;;;5010440;28;20469;-70
2022/03/06 06:06:26;;;;;;;33.17;14.97;;;-0.50;99.90;;;;;;5010760;28;20486;-70
2022/03/06 06:08:53;;;;;;;29.67;14.57;;;-0.50;99.90;;;;;;5006999;28;20454;-70
2022/03/06 06:11:21;;;;;;;29.37;15.10;;;-0.50;99.90;;;;;;5010967;28;20446;-70
2022/03/06 06:13:48;;;;;;;28.80;14.80;;;-0.50;99.90;;;;;;5010612;28;20454;-70
2022/03/06 06:16:15;;;;;;;28.57;14.90;;;-0.50;99.90;;;;;;5010546;28;20528;-69
2022/03/06 06:18:42;;;;;;;29.10;14.80;;;-0.40;99.90;;;;;;5010674;28;20454;-69
2022/03/06 06:21:10;;;;;;;27.70;13.93;;;-0.40;99.90;;;;;;5010236;28;20489;-70
2022/03/06 06:23:38;;;;;;;26.20;14.27;;;-0.40;99.90;;;;;;5010426;28;20485;-70
2022/03/06 06:26:05;;;;;;;27.50;14.83;;;-0.30;99.90;;;;;;5010420;28;20478;-70
2022/03/06 06:28:32;;;;;;;32.90;15.23;;;-0.40;99.90;;;;;;5010055;28;21073;-70
2022/03/06 06:30:58;;;;;;;27.30;15.13;;;-0.40;99.90;;;;;;5010249;28;20516;-70
2022/03/06 06:33:25;;;;;;;27.23;14.80;;;-0.40;99.90;;;;;;5010546;28;20450;-70
2022/03/06 06:35:52;;;;;;;33.57;16.30;;;-0.40;99.90;;;;;;5010237;28;20536;-70
2022/03/06 06:38:20;;;;;;;28.87;14.57;;;-0.40;99.90;;;;;;5010260;28;20532;-69
2022/03/06 06:40:48;;;;;;;27.70;14.37;;;-0.40;99.90;;;;;;5010270;28;20489;-69
2022/03/06 06:43:15;;;;;;;25.80;13.47;;;-0.50;99.90;;;;;;5009769;28;20451;-69
2022/03/06 06:45:42;;;;;;;26.30;14.30;;;-0.60;99.90;;;;;;5010561;28;20489;-70
2022/03/06 06:48:09;;;;;;;33.30;15.53;;;-0.60;99.90;;;;;;5012150;28;20458;-70
2022/03/06 06:50:36;;;;;;;25.77;14.67;;;-0.60;99.90;;;;;;5014486;28;20488;-70
2022/03/06 06:53:03;;;;;;;25.90;13.53;;;-0.50;99.90;;;;;;5014024;28;20454;-69
2022/03/06 06:55:30;;;;;;;27.90;14.73;;;-1.00;99.90;;;;;;5013921;28;20521;-69
2022/03/06 06:57:58;;;;;;;29.00;14.67;;;-0.70;99.90;;;;;;5013825;28;20488;-69
2022/03/06 07:00:25;;;;;;;33.87;14.70;;;-0.70;99.90;;;;;;5014293;28;20544;-70
2022/03/06 07:02:51;;;;;;;25.03;14.23;;;-0.70;99.90;;;;;;5013955;28;20849;-70
2022/03/06 07:05:18;;;;;;;31.43;14.20;;;-0.70;99.90;;;;;;5013786;28;20462;-69
2022/03/06 07:07:45;;;;;;;29.73;15.60;;;-0.60;99.90;;;;;;5013846;28;20532;-70
2022/03/06 07:10:12;;;;;;;28.77;14.33;;;-0.60;99.90;;;;;;5013687;28;20481;-69
2022/03/06 07:12:43;;;;;;;29.80;14.90;;;-0.60;99.90;;;;;;5013929;28;20454;-69
2022/03/06 07:15:13;;;;;;;30.20;14.77;;;-0.70;99.90;;;;;;5013627;28;20497;-69
2022/03/06 07:17:40;;;;;;;28.63;13.80;;;-0.50;99.90;;;;;;5013307;28;20548;-70
2022/03/06 07:20:08;;;;;;;29.20;14.35;;;-0.40;99.90;;;;;;5004671;28;20457;-71
2022/03/06 07:22:35;;;;;;;30.40;14.43;;;-0.40;99.90;;;;;;5002738;28;20529;-70
2022/03/06 07:25:02;;;;;;;29.43;15.43;;;0.00;99.90;;;;;;5006183;28;20450;-70
2022/03/06 07:27:28;;;;;;;31.73;15.17;;;0.80;99.90;;;;;;5013244;28;20450;-71
2022/03/06 07:29:56;;;;;;;27.33;15.00;;;2.00;99.90;;;;;;5013253;28;20458;-73
2022/03/06 07:32:24;;;;;;;25.40;14.40;;;3.10;99.90;;;;;;5012039;28;20817;-72
2022/03/06 07:34:50;;;;;;;25.00;14.20;;;3.90;99.90;;;;;;5000278;28;20496;-72
2022/03/06 07:37:18;;;;;;;24.90;13.83;;;4.30;99.90;;;;;;4998013;28;20471;-72
2022/03/06 07:39:45;;;;;;;29.70;15.07;;;5.00;99.90;;;;;;5010109;28;20461;-72
2022/03/06 07:42:11;;;;;;;27.33;15.30;;;5.60;99.90;;;;;;5013386;28;20493;-72
2022/03/06 07:44:38;;;;;;;27.93;14.57;;;6.30;99.90;;;;;;5013387;28;20446;-73
2022/03/06 07:47:05;;;;;;;22.77;13.60;;;6.70;99.90;;;;;;5013021;28;20838;-72
2022/03/06 07:49:33;;;;;;;31.33;15.47;;;6.90;99.90;;;;;;5012917;28;20450;-72
2022/03/06 07:52:00;;;;;;;23.63;14.40;;;7.20;99.90;;;;;;5012835;28;20446;-72
2022/03/06 07:54:27;;;;;;;25.60;13.63;;;7.30;99.90;;;;;;5012300;28;20463;-73
2022/03/06 07:56:53;;;;;;;25.97;14.40;;;7.30;99.90;;;;;;5012455;28;20539;-72
2022/03/06 07:59:21;;;;;;;25.00;13.67;;;7.30;99.90;;;;;;5012310;28;20536;-72
2022/03/06 08:01:48;;;;;;;20.43;13.63;;;7.30;99.90;;;;;;5012603;28;20482;-72
2022/03/06 08:04:14;;;;;;;22.60;14.20;;;7.20;99.90;;;;;;5012075;28;20465;-72
2022/03/06 08:06:42;;;;;;;23.77;13.70;;;7.20;99.90;;;;;;5012510;28;20528;-72
2022/03/06 08:09:09;;;;;;;20.07;13.17;;;6.90;99.90;;;;;;5002290;28;20446;-72
2022/03/06 08:11:36;;;;;;;21.50;12.83;;;6.90;99.90;;;;;;5012823;28;20482;-72
2022/03/06 08:14:02;;;;;;;23.73;14.30;;;6.60;99.90;;;;;;5012225;28;20512;-73
2022/03/06 08:16:29;;;;;;;25.20;14.43;;;6.50;99.90;;;;;;5012390;28;20470;-72
2022/03/06 08:18:56;;;;;;;22.43;13.30;;;6.60;99.90;;;;;;5012553;28;20454;-73
2022/03/06 08:21:22;;;;;;;25.17;13.93;;;6.70;99.90;;;;;;5012365;28;20494;-72
2022/03/06 08:23:51;;;;;;;25.33;14.37;;;6.70;99.90;;;;;;5012369;28;20462;-72
2022/03/06 08:26:18;;;;;;;23.70;14.27;;;6.70;99.90;;;;;;5011908;28;20536;-72
2022/03/06 08:28:45;;;;;;;28.10;14.83;;;6.70;99.90;;;;;;5011167;28;20446;-73
2022/03/06 08:31:12;;;;;;;26.13;14.90;;;6.70;99.90;;;;;;5011788;28;20450;-72
2022/03/06 08:33:39;;;;;;;23.17;14.37;;;6.70;99.90;;;;;;5010699;28;20450;-71
2022/03/06 08:36:05;;;;;;;21.63;14.10;;;6.50;99.90;;;;;;5011327;28;20466;-72
2022/03/06 08:38:32;;;;;;;33.13;14.77;;;6.40;99.90;;;;;;5011377;28;20458;-71
2022/03/06 08:41:00;;;;;;;27.20;14.63;;;6.60;99.90;;;;;;5010187;28;20482;-71
2022/03/06 08:43:27;;;;;;;29.67;15.97;;;6.80;99.90;;;;;;5010635;28;20950;-71
2022/03/06 08:45:54;;;;;;;27.83;15.53;;;7.20;99.90;;;;;;5010173;28;20478;-71
2022/03/06 08:48:21;;;;;;;27.50;15.30;;;7.20;99.90;;;;;;5004302;28;20842;-72
2022/03/06 08:50:49;;;;;;;24.03;13.60;;;7.40;99.90;;;;;;5010714;28;21060;-71
2022/03/06 08:53:16;;;;;;;20.50;13.67;;;7.40;99.90;;;;;;5010822;28;20465;-71
2022/03/06 08:55:42;;;;;;;24.53;14.40;;;7.60;99.90;;;;;;5010540;28;20477;-72
2022/03/06 08:58:11;;;;;;;22.57;14.03;;;7.70;99.90;;;;;;5009854;28;21024;-72
2022/03/06 09:00:37;;;;;;;25.80;15.03;;;8.10;99.90;;;;;;5010758;28;20458;-71
2022/03/06 09:03:04;;;;;;;27.23;15.87;;;8.40;99.90;;;;;;5009587;28;20450;-72
2022/03/06 09:05:31;;;;;;;26.97;15.97;;;8.70;99.90;;;;;;5011512;28;20540;-72
2022/03/06 09:07:57;;;;;;;25.47;15.33;;;8.80;99.90;;;;;;5011301;28;20455;-73
2022/03/06 09:10:24;;;;;;;20.20;14.20;;;8.80;99.90;;;;;;5011030;28;20458;-71
2022/03/06 09:12:51;;;;;;;24.03;13.87;;;9.00;99.90;;;;;;5010801;28;21009;-72
2022/03/06 09:15:19;;;;;;;23.33;15.23;;;9.20;99.90;;;;;;5011527;28;20458;-70
2022/03/06 09:17:46;;;;;;;23.60;14.50;;;9.50;99.90;;;;;;5010946;28;21368;-69
2022/03/06 09:20:13;;;;;;;26.23;14.93;;;9.70;99.90;;;;;;5011888;28;20452;-70
2022/03/06 09:22:39;;;;;;;19.80;13.80;;;9.90;99.90;;;;;;5011112;28;20520;-70
2022/03/06 09:25:07;;;;;;;19.03;13.33;;;10.10;99.90;;;;;;5011440;28;20942;-70
2022/03/06 09:27:35;;;;;;;23.03;13.60;;;10.40;99.90;;;;;;5010823;28;20457;-70
2022/03/06 09:30:02;;;;;;;20.47;14.10;;;10.50;99.90;;;;;;5011555;28;21068;-70
2022/03/06 09:32:30;;;;;;;17.73;12.87;;;10.70;99.90;;;;;;5011449;28;20512;-70
2022/03/06 09:34:56;;;;;;;21.93;13.73;;;10.70;99.90;;;;;;5011076;28;20518;-70
2022/03/06 09:37:23;;;;;;;18.17;12.83;;;10.70;99.90;;;;;;5011291;28;21157;-70
2022/03/06 09:39:50;;;;;;;23.20;14.20;;;10.40;99.90;;;;;;5010934;28;20513;-69
2022/03/06 09:42:17;;;;;;;19.43;13.27;;;10.30;99.90;;;;;;5011049;28;21064;-70
2022/03/06 09:44:47;;;;;;;19.70;13.17;;;9.80;99.90;;;;;;5010776;28;20457;-70
2022/03/06 09:47:14;;;;;;;18.23;12.50;;;9.40;99.90;;;;;;5010714;28;21055;-70
2022/03/06 09:49:45;;;;;;;20.77;13.67;;;9.30;99.90;;;;;;5010815;28;20512;-70
2022/03/06 09:52:12;;;;;;;20.17;13.00;;;9.10;99.90;;;;;;5010762;28;20454;-70
2022/03/06 09:54:39;;;;;;;18.80;13.30;;;8.90;99.90;;;;;;5009740;28;20946;-70
2022/03/06 09:57:07;;;;;;;20.53;13.67;;;8.50;99.90;;;;;;5011049;28;20478;-70
2022/03/06 09:59:34;;;;;;;19.77;13.00;;;8.20;99.90;;;;;;5010575;28;20469;-70
2022/03/06 10:02:01;;;;;;;17.57;11.33;;;8.00;99.90;;;;;;5011162;28;20486;-70
2022/03/06 10:04:30;;;;;;;10.40;8.90;;;7.90;99.90;;;;;;5010756;28;20457;-69
2022/03/06 10:07:03;;;;;;;10.33;7.70;;;7.50;97.70;;;;;;5010740;28;20477;-69
2022/03/06 10:09:31;;;;;;;8.47;7.57;;;7.40;95.40;;;;;;5010982;28;20454;-70
2022/03/06 10:11:58;;;;;;;8.00;7.17;;;7.30;94.80;;;;;;5010720;28;20462;-69
2022/03/06 10:14:41;;;;;;;13.60;9.57;;;7.30;94.30;;;;;;5010375;28;20454;-69
2022/03/06 10:17:12;;;;;;;11.50;7.80;;;7.60;96.00;;;;;;5010906;28;20474;-69
2022/03/06 10:20:04;;;;;;;9.53;7.40;;;7.80;95.80;;;;;;5011059;28;20450;-69
2022/03/06 10:22:34;;;;;;;11.40;9.00;;;8.50;94.50;;;;;;5000810;28;20552;-70
2022/03/06 10:25:06;;;;;;;10.10;8.30;;;9.00;94.00;;;;;;5014784;28;20446;-70
2022/03/06 10:27:45;;;;;;;9.63;8.13;;;9.60;93.40;;;;;;5014870;28;20465;-70
2022/03/06 10:30:34;;;;;;;10.67;8.30;;;9.50;90.50;;;;;;5014621;28;21008;-70
2022/03/06 10:33:02;;;;;;;12.00;8.30;;;8.60;91.90;;;;;;5014560;28;20454;-69
2022/03/06 10:35:34;;;;;;;9.80;8.00;;;8.40;92.20;;;;;;5014072;28;20465;-69
2022/03/06 10:38:16;;;;;;;11.13;8.20;;;8.10;92.30;;;;;;5014155;28;20461;-69
2022/03/06 10:40:43;;;;;;;15.00;10.07;;;7.60;92.60;;;;;;5014823;28;20449;-69
2022/03/06 10:43:21;;;;;;;12.07;8.40;;;7.50;92.50;;;;;;5014000;28;20492;-69
2022/03/06 10:45:49;;;;;;;9.47;8.03;;;7.50;92.90;;;;;;5014065;28;20470;-70
2022/03/06 10:48:15;;;;;;;9.40;7.97;;;7.70;92.50;;;;;;5014511;28;20454;-69
2022/03/06 10:50:43;;;;;;;8.87;7.70;;;7.80;91.80;;;;;;5014221;28;20450;-69
2022/03/06 10:53:22;;;;;;;11.43;7.63;;;7.70;91.40;;;;;;5014247;28;20467;-69
2022/03/06 10:55:49;;;;;;;9.90;7.80;;;7.90;91.30;;;;;;5013880;28;20565;-69
2022/03/06 10:58:17;;;;;;;11.53;8.60;;;8.00;92.20;;;;;;5014204;28;20461;-70
2022/03/06 11:00:44;;;;;;;9.33;8.40;;;7.90;92.70;;;;;;5013982;28;20465;-69
2022/03/06 11:03:13;;;;;;;13.47;9.00;;;7.80;92.00;;;;;;5013585;28;20486;-70
2022/03/06 11:05:42;;;;;;;12.60;8.20;;;7.90;93.10;;;;;;5013840;28;20928;-69
2022/03/06 11:08:09;;;;;;;11.57;8.67;;;8.10;92.00;;;;;;5014103;28;20508;-70
2022/03/06 11:10:39;;;;;;;10.97;8.20;;;8.20;91.70;;;;;;5014724;28;20500;-69
2022/03/06 11:13:06;;;;;;;9.70;7.70;;;8.50;92.20;;;;;;5013960;28;20450;-70
2022/03/06 11:15:34;;;;;;;11.67;8.23;;;9.00;91.30;;;;;;5013219;28;20478;-70
2022/03/06 11:18:01;;;;;;;11.10;8.33;;;9.50;91.20;;;;;;5013890;28;20466;-70
2022/03/06 11:20:30;;;;;;;8.57;7.70;;;10.10;87.30;;;;;;5013972;28;20873;-70
2022/03/06 11:23:07;;;;;;;9.87;8.70;;;10.40;88.40;;;;;;5013865;28;20536;-70
2022/03/06 11:25:43;;;;;;;15.50;8.70;;;10.50;91.20;;;;;;5013315;28;20477;-69
2022/03/06 11:28:23;;;;;;;9.33;8.43;;;10.60;90.20;;;;;;5013408;28;20454;-70
2022/03/06 11:30:49;;;;;;;10.47;8.87;;;10.70;90.30;;;;;;5013635;28;20492;-69
2022/03/06 11:33:20;;;;;;;9.37;7.80;;;10.70;90.40;;;;;;5013555;28;20915;-69
2022/03/06 11:35:46;;;;;;;12.60;9.20;;;10.70;89.40;;;;;;5012503;28;20477;-69
2022/03/06 11:38:15;;;;;;;9.83;8.40;;;10.50;89.70;;;;;;5013764;28;20450;-69
2022/03/06 11:40:48;;;;;;;9.43;8.20;;;10.40;88.00;;;;;;5013365;28;20454;-70
2022/03/06 11:43:44;;;;;;;11.00;9.00;;;9.70;88.70;;;;;;5013330;28;20563;-70
2022/03/06 11:46:16;;;;;;;10.13;8.73;;;9.20;90.40;;;;;;4989109;28;20478;-69
2022/03/06 11:49:13;;;;;;;9.70;8.00;;;8.90;90.50;;;;;;5013213;28;20500;-70
2022/03/06 11:51:49;;;;;;;11.03;8.80;;;8.60;90.40;;;;;;5012890;28;20978;-69
2022/03/06 11:54:24;;;;;;;18.93;12.13;;;8.20;90.90;;;;;;5012890;28;20474;-69
2022/03/06 11:57:00;;;;;;;16.40;10.53;;;7.70;91.00;;;;;;5012409;28;21008;-69
2022/03/06 11:59:47;;;;;;;21.43;12.40;;;7.50;91.60;;;;;;5013152;28;20457;-70
2022/03/06 12:02:21;;;;;;;25.37;13.40;;;7.60;92.30;;;;;;5012940;28;20801;-69
2022/03/06 12:04:54;;;;;;;12.00;9.43;;;8.30;91.60;;;;;;5012527;28;20470;-69
2022/03/06 12:07:21;;;;;;;12.93;9.70;;;9.10;90.80;;;;;;5012383;28;20478;-70
2022/03/06 12:09:52;;;;;;;11.20;9.23;;;9.90;90.20;;;;;;5012502;28;20878;-69
2022/03/06 12:12:21;;;;;;;13.53;9.90;;;10.50;88.70;;;;;;5013021;28;20451;-69
2022/03/06 12:14:50;;;;;;;11.80;9.40;;;10.30;86.70;;;;;;5012283;28;21014;-69
2022/03/06 12:17:36;;;;;;;11.70;8.93;;;10.30;90.10;;;;;;5012668;28;21010;-69
2022/03/06 12:20:29;;;;;;;11.60;9.33;;;10.30;86.70;;;;;;5010884;28;21165;-69
2022/03/06 12:23:03;;;;;;;11.60;9.50;;;9.70;87.90;;;;;;5012275;28;20482;-69
2022/03/06 12:25:31;;;;;;;12.23;9.80;;;9.00;88.00;;;;;;5012153;28;20644;-69
2022/03/06 12:28:24;;;;;;;12.53;9.97;;;8.20;89.80;;;;;;5012155;28;20508;-70
2022/03/06 12:30:51;;;;;;;10.90;9.37;;;8.20;90.60;;;;;;5012610;28;20518;-69
2022/03/06 12:33:34;;;;;;;11.03;9.33;;;8.20;90.50;;;;;;5012141;28;20801;-70
2022/03/06 12:36:20;;;;;;;12.17;9.27;;;8.30;90.20;;;;;;5012395;28;20474;-70
2022/03/06 12:38:51;;;;;;;11.10;8.57;;;8.70;90.30;;;;;;5012586;28;20570;-70
2022/03/06 12:41:17;;;;;;;11.20;9.03;;;9.30;90.30;;;;;;5011676;28;20458;-70